Time;durP1;ratioP1;P1;durP2;ratioP2;P2;SDS_P1;SDS_P2;PMS_P1;PMS_P2;Temp;Humidity;BMP_temperature;BMP_pressure;BME280_temperature;BME280_humidity;BME280_pressure;Samples;Min_cycle;Max_cycle;Signal;HPM_P1;HPM_P2
2022/10/17 00:01:01;;;;;;;5.60;1.65;;;17.20;84.40;;;;;;5094637;28;20020;-80
2022/10/17 00:03:27;;;;;;;6.43;1.10;;;17.20;84.50;;;;;;5115587;28;20104;-80
2022/10/17 00:05:52;;;;;;;7.25;1.20;;;17.20;84.40;;;;;;5117086;28;20066;-80
2022/10/17 00:08:18;;;;;;;6.63;1.42;;;17.20;84.30;;;;;;5116956;28;20034;-80
2022/10/17 00:10:44;;;;;;;2.78;0.77;;;17.20;84.40;;;;;;5116716;28;20031;-81
2022/10/17 00:13:10;;;;;;;4.70;1.73;;;17.30;84.40;;;;;;5115719;28;20073;-80
2022/10/17 00:15:35;;;;;;;3.47;1.58;;;17.20;84.30;;;;;;5115622;28;20039;-80
2022/10/17 00:18:01;;;;;;;6.05;1.45;;;17.20;84.40;;;;;;5097798;28;20058;-80
2022/10/17 00:20:29;;;;;;;5.22;1.45;;;17.20;84.40;;;;;;5116623;28;20087;-80
2022/10/17 00:22:55;;;;;;;3.08;1.15;;;17.20;84.40;;;;;;5115595;28;20030;-80
2022/10/17 00:25:20;;;;;;;3.83;0.93;;;17.20;84.40;;;;;;5115331;28;20020;-80
2022/10/17 00:27:46;;;;;;;6.38;1.17;;;17.20;84.40;;;;;;5115387;28;20494;-80
2022/10/17 00:30:13;;;;;;;6.55;1.35;;;17.20;84.40;;;;;;5115394;28;20045;-80
2022/10/17 00:32:39;;;;;;;3.10;0.93;;;17.20;84.40;;;;;;5115329;28;20492;-80
2022/10/17 00:35:04;;;;;;;5.07;1.48;;;17.30;84.50;;;;;;5116313;28;20047;-80
2022/10/17 00:37:30;;;;;;;4.00;0.90;;;17.20;84.40;;;;;;5098143;28;20023;-80
2022/10/17 00:39:56;;;;;;;3.03;1.10;;;17.20;84.40;;;;;;5098271;28;20023;-80
2022/10/17 00:42:23;;;;;;;2.92;1.00;;;17.20;84.40;;;;;;5115278;28;20028;-80
2022/10/17 00:44:49;;;;;;;3.60;1.02;;;17.20;84.40;;;;;;5116497;28;20536;-80
2022/10/17 00:47:19;;;;;;;2.45;1.23;;;17.20;84.50;;;;;;5102340;28;20112;-80
2022/10/17 00:49:45;;;;;;;3.80;1.20;;;17.20;84.40;;;;;;5077598;28;20395;-80
2022/10/17 00:52:12;;;;;;;5.72;2.05;;;17.30;84.50;;;;;;5094404;28;20020;-81
2022/10/17 00:54:39;;;;;;;2.45;1.15;;;17.20;84.40;;;;;;5077657;28;20482;-80
2022/10/17 00:57:05;;;;;;;3.45;1.20;;;17.20;84.40;;;;;;5077744;28;20016;-80
2022/10/17 00:59:32;;;;;;;2.17;0.93;;;17.30;84.50;;;;;;5077491;28;20028;-81
2022/10/17 01:02:12;;;;;;;2.90;1.20;;;17.30;84.50;;;;;;5077524;28;20047;-80
2022/10/17 01:04:39;;;;;;;3.67;1.30;;;17.20;84.40;;;;;;5094301;28;20498;-80
2022/10/17 01:07:05;;;;;;;2.83;1.15;;;17.20;84.40;;;;;;5077560;28;20028;-80
2022/10/17 01:09:30;;;;;;;4.00;1.20;;;17.20;84.50;;;;;;5094187;28;20085;-80
2022/10/17 01:12:01;;;;;;;2.80;1.00;;;17.20;84.50;;;;;;5094148;28;20024;-81
2022/10/17 01:14:34;;;;;;;1.60;0.80;;;17.20;84.50;;;;;;5093245;28;20478;-80
2022/10/17 01:17:02;;;;;;;;;;;17.30;84.60;;;;;;5088416;28;20099;-80
2022/10/17 01:20:02;;;;;;;2.83;1.00;;;17.20;84.40;;;;;;5114540;28;19950;-80
2022/10/17 01:22:48;;;;;;;3.90;1.08;;;17.20;84.50;;;;;;5052524;28;20037;-80
2022/10/17 01:25:29;;;;;;;4.30;1.13;;;17.20;84.50;;;;;;5036339;28;20029;-80
2022/10/17 01:28:13;;;;;;;2.80;0.95;;;17.20;84.50;;;;;;5052523;28;20160;-80
2022/10/17 01:30:56;;;;;;;9.65;1.65;;;17.20;84.50;;;;;;5052597;28;20062;-80
2022/10/17 01:33:40;;;;;;;2.53;1.05;;;17.20;84.60;;;;;;5035944;28;20202;-81
2022/10/17 01:36:28;;;;;;;3.90;1.20;;;17.20;84.50;;;;;;5052550;28;20044;-80
2022/10/17 01:39:17;;;;;;;2.80;0.88;;;17.20;84.60;;;;;;5038395;28;20103;-80
2022/10/17 01:41:48;;;;;;;3.30;0.93;;;17.20;84.60;;;;;;5035558;28;20029;-80
2022/10/17 01:44:23;;;;;;;6.38;0.80;;;17.20;84.70;;;;;;5036863;28;20060;-80
2022/10/17 01:46:49;;;;;;;6.00;0.85;;;17.20;84.60;;;;;;5026452;28;20042;-80
2022/10/17 01:49:15;;;;;;;2.55;0.98;;;17.20;84.60;;;;;;5016056;28;20038;-80
2022/10/17 01:51:47;;;;;;;2.97;0.95;;;17.30;84.70;;;;;;5015438;28;20091;-80
2022/10/17 01:54:20;;;;;;;1.45;0.85;;;17.30;84.70;;;;;;5015662;28;20528;-80
2022/10/17 01:56:46;;;;;;;2.40;1.02;;;17.20;84.60;;;;;;5015822;28;20045;-80
2022/10/17 01:59:21;;;;;;;3.70;1.23;;;17.30;84.70;;;;;;5055569;28;20055;-80
2022/10/17 02:01:48;;;;;;;1.75;1.13;;;17.20;84.60;;;;;;5076650;28;20121;-79
2022/10/17 02:04:15;;;;;;;3.05;1.17;;;17.20;84.70;;;;;;5076729;28;20413;-79
2022/10/17 02:06:40;;;;;;;2.38;1.00;;;17.20;84.70;;;;;;5093959;28;20032;-80
2022/10/17 02:09:21;;;;;;;3.20;1.00;;;17.30;84.80;;;;;;5093156;28;20035;-79
2022/10/17 02:12:05;;;;;;;1.90;1.00;;;17.30;84.70;;;;;;5076311;28;20115;-79
2022/10/17 02:14:43;;;;;;;3.70;0.95;;;17.30;84.80;;;;;;5092925;28;20012;-79
2022/10/17 02:17:43;;;;;;;6.70;1.23;;;17.30;84.80;;;;;;5105678;28;20377;-80
2022/10/17 02:20:14;;;;;;;5.95;1.20;;;17.20;84.70;;;;;;5098927;28;20032;-80
2022/10/17 02:22:48;;;;;;;2.53;1.00;;;17.20;84.80;;;;;;5113162;28;20034;-79
2022/10/17 02:25:30;;;;;;;1.20;0.80;;;17.30;84.90;;;;;;5096911;28;20477;-80
2022/10/17 02:28:05;;;;;;;2.33;1.00;;;17.20;84.80;;;;;;5097719;28;20115;-79
2022/10/17 02:30:48;;;;;;;4.18;0.82;;;17.30;84.90;;;;;;5112969;28;20457;-80
2022/10/17 02:33:28;;;;;;;3.95;1.13;;;17.30;84.80;;;;;;5113119;28;20020;-80
2022/10/17 02:35:55;;;;;;;2.47;0.73;;;17.30;84.80;;;;;;5113030;28;20012;-79
2022/10/17 02:38:20;;;;;;;2.45;0.75;;;17.30;84.80;;;;;;5096013;28;20023;-80
2022/10/17 02:40:46;;;;;;;4.80;1.42;;;17.30;84.90;;;;;;5095877;28;20073;-81
2022/10/17 02:43:12;;;;;;;4.78;1.23;;;17.30;84.90;;;;;;5112992;28;20028;-80
2022/10/17 02:45:38;;;;;;;1.65;0.90;;;17.30;85.00;;;;;;5095599;28;20055;-80
2022/10/17 02:48:03;;;;;;;2.50;0.90;;;17.30;85.00;;;;;;5075306;28;20055;-80
2022/10/17 02:50:55;;;;;;;7.15;1.30;;;17.20;84.90;;;;;;5093565;28;20062;-80
2022/10/17 02:53:33;;;;;;;3.40;0.73;;;17.30;85.00;;;;;;5091944;28;20044;-80
2022/10/17 02:56:01;;;;;;;2.88;0.90;;;17.30;85.10;;;;;;5092197;28;20016;-80
2022/10/17 02:58:31;;;;;;;3.10;0.82;;;17.30;85.10;;;;;;5075468;28;20497;-80
2022/10/17 03:00:57;;;;;;;1.67;0.82;;;17.30;85.10;;;;;;5075930;28;20027;-80
2022/10/17 03:03:24;;;;;;;5.35;0.88;;;17.30;85.10;;;;;;5075259;28;20028;-80
2022/10/17 03:05:49;;;;;;;5.72;1.13;;;17.30;85.10;;;;;;5093156;28;20049;-81
2022/10/17 03:08:15;;;;;;;1.58;0.60;;;17.30;85.20;;;;;;5091999;28;20031;-81
2022/10/17 03:10:41;;;;;;;2.45;1.00;;;17.30;85.20;;;;;;5093195;28;20055;-80
2022/10/17 03:13:06;;;;;;;2.58;1.13;;;17.30;85.20;;;;;;5091968;28;20100;-80
2022/10/17 03:15:32;;;;;;;3.38;1.08;;;17.30;85.20;;;;;;5092068;28;20091;-80
2022/10/17 03:17:57;;;;;;;2.30;0.80;;;17.30;85.20;;;;;;5110944;28;20489;-80
2022/10/17 03:20:23;;;;;;;2.42;1.10;;;17.30;85.20;;;;;;5113501;28;20033;-80
2022/10/17 03:22:49;;;;;;;3.25;1.02;;;17.30;85.20;;;;;;5113252;28;20035;-79
2022/10/17 03:25:14;;;;;;;3.30;1.23;;;17.30;85.20;;;;;;5113355;28;20050;-79
2022/10/17 03:27:40;;;;;;;4.25;0.90;;;17.30;85.30;;;;;;5112956;28;20055;-80
2022/10/17 03:30:06;;;;;;;1.90;1.00;;;17.30;85.20;;;;;;5113196;28;20026;-80
2022/10/17 03:32:32;;;;;;;2.88;0.90;;;17.30;85.30;;;;;;5112849;28;20073;-80
2022/10/17 03:34:58;;;;;;;3.38;0.90;;;17.30;85.20;;;;;;5111991;28;20088;-80
2022/10/17 03:37:24;;;;;;;4.38;0.98;;;17.30;85.20;;;;;;5112687;28;20473;-80
2022/10/17 03:39:49;;;;;;;4.63;0.88;;;17.30;85.20;;;;;;5112857;28;20020;-79
2022/10/17 03:42:15;;;;;;;2.45;1.20;;;17.30;85.20;;;;;;5113192;28;20055;-80
2022/10/17 03:44:41;;;;;;;4.47;1.00;;;17.30;85.20;;;;;;5113058;28;20019;-80
2022/10/17 03:47:06;;;;;;;4.25;1.42;;;17.30;85.30;;;;;;5099898;28;20078;-80
2022/10/17 03:49:32;;;;;;;1.58;0.90;;;17.30;85.20;;;;;;5092607;28;20579;-80
2022/10/17 03:51:57;;;;;;;6.25;1.10;;;17.30;85.20;;;;;;5092473;28;20020;-80
2022/10/17 03:54:23;;;;;;;2.78;0.90;;;17.30;85.20;;;;;;5092370;28;20036;-80
2022/10/17 03:56:49;;;;;;;1.20;0.88;;;17.30;85.20;;;;;;5092583;28;20024;-80
2022/10/17 03:59:14;;;;;;;6.20;1.00;;;17.30;85.30;;;;;;5092486;28;20106;-80
2022/10/17 04:01:40;;;;;;;3.40;1.35;;;17.30;85.30;;;;;;5091085;28;20093;-80
2022/10/17 04:04:06;;;;;;;4.97;1.63;;;17.30;85.30;;;;;;5091287;28;20035;-80
2022/10/17 04:06:31;;;;;;;1.23;0.80;;;17.30;85.30;;;;;;5092391;28;20031;-80
2022/10/17 04:08:57;;;;;;;2.10;1.02;;;17.30;85.30;;;;;;5091122;28;20020;-80
2022/10/17 04:11:23;;;;;;;1.77;0.88;;;17.30;85.40;;;;;;5091223;28;20024;-80
2022/10/17 04:13:55;;;;;;;1.15;1.00;;;17.30;85.20;;;;;;5092196;28;20031;-80
2022/10/17 04:16:21;;;;;;;4.50;1.05;;;17.30;85.30;;;;;;5079056;28;20033;-80
2022/10/17 04:18:50;;;;;;;1.90;0.90;;;17.30;85.40;;;;;;5111514;28;20028;-80
2022/10/17 04:21:17;;;;;;;5.45;1.00;;;17.30;85.40;;;;;;5111367;28;20127;-80
2022/10/17 04:23:43;;;;;;;1.85;0.85;;;17.30;85.50;;;;;;5112419;28;20076;-80
2022/10/17 04:26:09;;;;;;;2.38;0.80;;;17.30;85.40;;;;;;5093970;28;20028;-79
2022/10/17 04:28:34;;;;;;;1.90;0.70;;;17.30;85.40;;;;;;5090981;28;20024;-79
2022/10/17 04:31:05;;;;;;;5.25;0.80;;;17.40;85.50;;;;;;5091052;28;20038;-80
2022/10/17 04:33:31;;;;;;;1.50;0.90;;;17.40;85.50;;;;;;5074546;28;20012;-81
2022/10/17 04:36:00;;;;;;;2.63;0.80;;;17.40;85.50;;;;;;5091139;28;20032;-81
2022/10/17 04:38:26;;;;;;;2.80;1.20;;;17.40;85.60;;;;;;5074872;28;20054;-81
2022/10/17 04:40:52;;;;;;;2.72;1.00;;;17.30;85.50;;;;;;5074371;28;20486;-81
2022/10/17 04:43:18;;;;;;;5.47;0.95;;;17.30;85.50;;;;;;5092250;28;20095;-81
2022/10/17 04:45:43;;;;;;;1.23;0.80;;;17.40;85.60;;;;;;5090942;28;20038;-81
2022/10/17 04:48:09;;;;;;;2.92;1.17;;;17.30;85.50;;;;;;5092156;28;20474;-81
2022/10/17 04:50:35;;;;;;;4.20;0.85;;;17.40;85.60;;;;;;5093812;28;20512;-80
2022/10/17 04:53:00;;;;;;;1.83;0.85;;;17.40;85.70;;;;;;5095799;28;20044;-81
2022/10/17 04:55:26;;;;;;;4.68;1.20;;;17.40;85.60;;;;;;5096020;28;20043;-80
2022/10/17 04:57:51;;;;;;;4.03;0.70;;;17.40;85.70;;;;;;5095889;28;20025;-80
2022/10/17 05:00:17;;;;;;;6.55;0.90;;;17.40;85.70;;;;;;5095941;28;20032;-80
2022/10/17 05:02:43;;;;;;;8.80;1.33;;;17.40;85.70;;;;;;5077561;28;20020;-80
2022/10/17 05:05:08;;;;;;;2.47;0.90;;;17.40;85.70;;;;;;5095940;28;20040;-80
2022/10/17 05:07:34;;;;;;;2.97;0.80;;;17.40;85.70;;;;;;5094701;28;20016;-80
2022/10/17 05:10:00;;;;;;;3.35;0.80;;;17.40;85.60;;;;;;5095707;28;20024;-80
2022/10/17 05:12:25;;;;;;;8.13;0.85;;;17.40;85.60;;;;;;5094613;28;20020;-80
2022/10/17 05:14:51;;;;;;;3.58;0.75;;;17.40;85.70;;;;;;5094142;28;20027;-80
2022/10/17 05:17:17;;;;;;;1.83;1.00;;;17.40;85.60;;;;;;5095648;28;20390;-80
2022/10/17 05:19:42;;;;;;;4.35;1.00;;;17.40;85.60;;;;;;5095667;28;20032;-80
2022/10/17 05:22:08;;;;;;;2.42;0.73;;;17.40;85.60;;;;;;5095436;28;20020;-80
2022/10/17 05:24:33;;;;;;;3.10;0.75;;;17.40;85.50;;;;;;5077669;28;20050;-80
2022/10/17 05:26:59;;;;;;;2.25;0.70;;;17.40;85.60;;;;;;5095258;28;20539;-80
2022/10/17 05:29:25;;;;;;;2.80;0.70;;;17.30;85.50;;;;;;5095125;28;20076;-80
2022/10/17 05:31:50;;;;;;;2.63;0.80;;;17.40;85.60;;;;;;5095545;28;20383;-80
2022/10/17 05:34:16;;;;;;;2.88;0.80;;;17.40;85.60;;;;;;5095306;28;20398;-81
2022/10/17 05:36:41;;;;;;;4.43;1.10;;;17.40;85.70;;;;;;5095438;28;20394;-80
2022/10/17 05:39:07;;;;;;;1.98;0.80;;;17.40;85.60;;;;;;5094960;28;20032;-80
2022/10/17 05:41:33;;;;;;;7.32;0.80;;;17.40;85.70;;;;;;5094124;28;20023;-80
2022/10/17 05:43:59;;;;;;;4.45;0.93;;;17.40;85.70;;;;;;5076842;28;20488;-80
2022/10/17 05:46:25;;;;;;;1.60;0.75;;;17.40;85.70;;;;;;5095018;28;20024;-80
2022/10/17 05:48:50;;;;;;;2.38;0.80;;;17.40;85.70;;;;;;5094308;28;20030;-80
2022/10/17 05:51:16;;;;;;;11.63;1.02;;;17.40;85.70;;;;;;5093559;28;20490;-80
2022/10/17 05:53:41;;;;;;;1.35;0.60;;;17.40;85.70;;;;;;5093552;28;20460;-79
2022/10/17 05:56:08;;;;;;;2.72;0.93;;;17.40;85.70;;;;;;5088795;28;20401;-81
2022/10/17 05:58:35;;;;;;;1.60;0.90;;;17.40;85.80;;;;;;5093114;28;20020;-80
2022/10/17 06:01:02;;;;;;;4.75;1.10;;;17.40;85.80;;;;;;5092920;28;20077;-80
2022/10/17 06:03:28;;;;;;;7.22;1.52;;;17.40;85.80;;;;;;5093348;28;20023;-81
2022/10/17 06:05:53;;;;;;;2.55;0.70;;;17.40;85.80;;;;;;5093153;28;20077;-81
2022/10/17 06:08:19;;;;;;;4.55;1.25;;;17.40;85.80;;;;;;5093165;28;20024;-79
2022/10/17 06:10:49;;;;;;;3.03;0.82;;;17.40;85.80;;;;;;5093165;28;20081;-78
2022/10/17 06:13:15;;;;;;;2.10;0.70;;;17.40;85.70;;;;;;5092919;28;20035;-79
2022/10/17 06:15:41;;;;;;;5.00;0.80;;;17.40;85.50;;;;;;5092980;28;20019;-80
2022/10/17 06:18:07;;;;;;;3.55;0.70;;;17.40;85.40;;;;;;5092796;28;20036;-80
2022/10/17 06:20:32;;;;;;;2.63;0.80;;;17.40;85.30;;;;;;5094199;28;20024;-80
2022/10/17 06:22:58;;;;;;;3.05;0.85;;;17.40;85.20;;;;;;5094184;28;20028;-80
2022/10/17 06:25:23;;;;;;;3.75;0.80;;;17.40;85.10;;;;;;5092836;28;20047;-80
2022/10/17 06:27:49;;;;;;;3.50;0.77;;;17.40;85.00;;;;;;5093438;28;20398;-80
2022/10/17 06:30:15;;;;;;;4.57;0.70;;;17.40;84.90;;;;;;5091324;28;20028;-80
2022/10/17 06:32:40;;;;;;;1.02;0.60;;;17.30;84.80;;;;;;5092568;28;20399;-80
2022/10/17 06:35:06;;;;;;;1.73;0.57;;;17.40;84.70;;;;;;5091324;28;20509;-80
2022/10/17 06:37:32;;;;;;;2.97;0.85;;;17.40;84.70;;;;;;5088742;28;20012;-80
2022/10/17 06:39:58;;;;;;;2.22;0.88;;;17.40;84.60;;;;;;5074237;28;20035;-80
2022/10/17 06:42:24;;;;;;;1.05;0.70;;;17.30;84.50;;;;;;5092595;28;20107;-80
2022/10/17 06:44:49;;;;;;;5.05;1.20;;;17.30;84.50;;;;;;5080124;28;20033;-80
2022/10/17 06:47:15;;;;;;;13.85;1.77;;;17.30;84.40;;;;;;5073600;28;20035;-79
2022/10/17 06:49:40;;;;;;;23.65;3.20;;;17.30;84.40;;;;;;5073902;28;20050;-79
2022/10/17 06:52:06;;;;;;;12.32;2.15;;;17.30;84.40;;;;;;5072855;28;20398;-80
2022/10/17 06:54:32;;;;;;;10.68;1.80;;;17.30;84.40;;;;;;5070448;28;20485;-80
2022/10/17 06:56:57;;;;;;;18.55;1.85;;;17.30;84.40;;;;;;5071593;28;20372;-80
2022/10/17 06:59:23;;;;;;;12.07;2.40;;;17.30;84.40;;;;;;5081585;28;20060;-80
2022/10/17 07:01:49;;;;;;;8.80;1.98;;;17.30;84.40;;;;;;5100908;28;20055;-80
2022/10/17 07:04:14;;;;;;;14.10;2.50;;;17.30;84.40;;;;;;5106274;28;20104;-80
2022/10/17 07:06:40;;;;;;;15.77;2.72;;;17.30;84.40;;;;;;5113622;28;20035;-80
2022/10/17 07:09:05;;;;;;;12.88;1.67;;;17.30;84.40;;;;;;5093842;28;20024;-79
2022/10/17 07:11:31;;;;;;;24.17;2.65;;;17.30;84.30;;;;;;5091710;28;20042;-79
2022/10/17 07:13:57;;;;;;;10.25;2.22;;;17.30;84.20;;;;;;5091472;28;20026;-79
2022/10/17 07:16:23;;;;;;;10.65;2.60;;;17.30;84.20;;;;;;5099466;28;20020;-79
2022/10/17 07:18:49;;;;;;;8.70;2.08;;;17.30;84.30;;;;;;5113526;28;20036;-79
2022/10/17 07:21:15;;;;;;;17.17;2.80;;;17.30;84.20;;;;;;5112158;28;20027;-79
2022/10/17 07:23:40;;;;;;;12.85;2.60;;;17.30;84.20;;;;;;5113232;28;20023;-79
2022/10/17 07:26:09;;;;;;;12.07;2.92;;;17.30;84.10;;;;;;5112002;28;20024;-79
2022/10/17 07:28:38;;;;;;;13.30;2.78;;;17.30;84.10;;;;;;5112189;28;20034;-79
2022/10/17 07:31:09;;;;;;;12.55;2.67;;;17.30;84.10;;;;;;5095699;28;20015;-79
2022/10/17 07:33:34;;;;;;;11.82;2.35;;;17.30;84.10;;;;;;5086799;28;20020;-80
2022/10/17 07:36:00;;;;;;;14.00;2.95;;;17.30;84.10;;;;;;5092523;28;20016;-79
2022/10/17 07:38:27;;;;;;;11.82;2.42;;;17.30;84.00;;;;;;5091446;28;20027;-80
2022/10/17 07:40:54;;;;;;;8.60;2.58;;;17.30;84.10;;;;;;5091646;28;20020;-79
2022/10/17 07:43:19;;;;;;;13.93;2.60;;;17.30;84.10;;;;;;5074831;28;20663;-79
2022/10/17 07:45:45;;;;;;;13.10;2.67;;;17.30;84.10;;;;;;5091276;28;20486;-80
2022/10/17 07:48:11;;;;;;;15.73;3.08;;;17.30;84.10;;;;;;5092462;28;20038;-80
2022/10/17 07:50:36;;;;;;;10.73;2.38;;;17.30;84.10;;;;;;5092349;28;20031;-79
2022/10/17 07:53:02;;;;;;;14.68;2.67;;;17.30;84.10;;;;;;5092067;28;20506;-79
2022/10/17 07:55:27;;;;;;;13.43;3.38;;;17.30;84.10;;;;;;5092537;28;20020;-79
2022/10/17 07:57:53;;;;;;;11.63;2.83;;;17.30;84.10;;;;;;5092418;28;20027;-79
2022/10/17 08:00:19;;;;;;;11.48;2.75;;;17.30;84.00;;;;;;5091143;28;20030;-79
2022/10/17 08:02:44;;;;;;;13.48;2.95;;;17.30;84.00;;;;;;5091406;28;20031;-79
2022/10/17 08:05:10;;;;;;;16.27;3.28;;;17.30;84.10;;;;;;5091205;28;20489;-79
2022/10/17 08:07:36;;;;;;;21.25;3.40;;;17.30;84.10;;;;;;5099751;28;20027;-79
2022/10/17 08:10:02;;;;;;;12.80;2.33;;;17.20;84.00;;;;;;5111313;28;20106;-79
2022/10/17 08:12:30;;;;;;;11.88;2.88;;;17.20;84.00;;;;;;5112777;28;20020;-79
2022/10/17 08:14:56;;;;;;;14.82;3.05;;;17.30;84.10;;;;;;5111443;28;20031;-79
2022/10/17 08:17:22;;;;;;;13.07;2.95;;;17.20;84.00;;;;;;5111455;28;20020;-79
2022/10/17 08:19:47;;;;;;;9.90;2.90;;;17.30;84.00;;;;;;5111431;28;20034;-79
2022/10/17 08:22:13;;;;;;;20.20;3.17;;;17.30;84.00;;;;;;5112503;28;20398;-79
2022/10/17 08:24:38;;;;;;;13.77;3.15;;;17.20;84.00;;;;;;5115662;28;20394;-79
2022/10/17 08:27:10;;;;;;;12.40;2.47;;;17.20;84.00;;;;;;5116675;28;20035;-79
2022/10/17 08:29:36;;;;;;;10.50;2.58;;;17.20;83.90;;;;;;5116789;28;20478;-80
2022/10/17 08:32:02;;;;;;;8.93;2.28;;;17.20;83.90;;;;;;5115360;28;20024;-80
2022/10/17 08:34:27;;;;;;;11.60;2.58;;;17.20;83.90;;;;;;5115393;28;20103;-79
2022/10/17 08:36:53;;;;;;;7.32;2.13;;;17.20;83.80;;;;;;5115370;28;20062;-79
2022/10/17 08:39:19;;;;;;;12.23;2.28;;;17.20;83.90;;;;;;5098111;28;20393;-79
2022/10/17 08:42:02;;;;;;;11.55;3.05;;;17.20;83.90;;;;;;5116451;28;20084;-79
2022/10/17 08:44:47;;;;;;;12.93;2.85;;;17.20;83.80;;;;;;5116485;28;20074;-79
2022/10/17 08:47:34;;;;;;;11.20;2.53;;;17.20;83.80;;;;;;5102761;28;20035;-79
2022/10/17 08:50:02;;;;;;;9.38;2.75;;;17.20;83.80;;;;;;5094044;28;20051;-79
2022/10/17 08:52:36;;;;;;;11.98;2.60;;;17.20;83.80;;;;;;5094144;28;20097;-79
2022/10/17 08:55:03;;;;;;;13.07;2.38;;;17.20;83.80;;;;;;5095849;28;20463;-79
2022/10/17 08:57:29;;;;;;;10.20;2.33;;;17.20;83.80;;;;;;5094627;28;20016;-80
2022/10/17 08:59:55;;;;;;;10.65;2.42;;;17.20;83.80;;;;;;5094480;28;20039;-79
2022/10/17 09:02:25;;;;;;;11.20;2.65;;;17.20;83.80;;;;;;5061473;28;20043;-79
2022/10/17 09:05:20;;;;;;;9.05;2.45;;;17.20;83.90;;;;;;5094667;28;20089;-78
2022/10/17 09:07:54;;;;;;;11.50;2.45;;;17.20;83.80;;;;;;5103228;28;20027;-79
2022/10/17 09:10:32;;;;;;;9.52;2.80;;;17.20;83.80;;;;;;5115763;28;20531;-79
2022/10/17 09:13:07;;;;;;;10.07;2.67;;;17.20;83.80;;;;;;5114981;28;20020;-79
2022/10/17 09:15:48;;;;;;;11.23;2.53;;;17.20;83.80;;;;;;5114622;28;20024;-79
2022/10/17 09:18:22;;;;;;;13.45;2.80;;;17.20;83.80;;;;;;5115793;28;20084;-79
2022/10/17 09:20:52;;;;;;;8.50;2.30;;;17.20;83.90;;;;;;5114222;28;20116;-79
2022/10/17 09:23:32;;;;;;;9.68;2.60;;;17.20;83.80;;;;;;5114419;28;20051;-79
2022/10/17 09:25:59;;;;;;;12.40;2.17;;;17.20;83.90;;;;;;5098896;28;20129;-79
2022/10/17 09:28:35;;;;;;;8.68;2.28;;;17.20;83.80;;;;;;5114196;28;20020;-79
2022/10/17 09:31:02;;;;;;;9.75;2.85;;;17.20;83.80;;;;;;5080763;28;20028;-79
2022/10/17 09:33:30;;;;;;;10.25;2.65;;;17.20;83.90;;;;;;5114351;28;20019;-79
2022/10/17 09:35:56;;;;;;;11.45;2.45;;;17.20;83.80;;;;;;5113153;28;20057;-79
2022/10/17 09:38:23;;;;;;;11.82;2.65;;;17.20;83.80;;;;;;5114185;28;20020;-79
2022/10/17 09:40:54;;;;;;;11.50;2.35;;;17.20;83.90;;;;;;5114104;28;20030;-79
2022/10/17 09:43:20;;;;;;;9.25;2.58;;;17.20;83.90;;;;;;5097220;28;20032;-79
2022/10/17 09:46:07;;;;;;;9.45;2.30;;;17.20;83.90;;;;;;5095707;28;20038;-79
2022/10/17 09:48:51;;;;;;;5.43;2.20;;;17.20;83.90;;;;;;5093397;28;20077;-79
2022/10/17 09:51:16;;;;;;;7.35;2.80;;;17.20;83.90;;;;;;5076885;28;20059;-79
2022/10/17 09:53:48;;;;;;;7.45;2.60;;;17.20;84.00;;;;;;5093462;28;20517;-79
2022/10/17 09:56:15;;;;;;;10.53;2.40;;;17.20;83.90;;;;;;5077334;28;20032;-78
2022/10/17 09:58:48;;;;;;;5.63;1.90;;;17.20;83.90;;;;;;5060049;28;20045;-79
2022/10/17 10:01:28;;;;;;;12.90;2.92;;;17.20;83.90;;;;;;5076799;28;20020;-79
2022/10/17 10:04:13;;;;;;;10.35;2.45;;;17.20;83.90;;;;;;5094357;28;20020;-79
2022/10/17 10:06:39;;;;;;;10.38;2.35;;;17.20;83.90;;;;;;5076931;28;20024;-79
2022/10/17 10:09:06;;;;;;;7.65;2.35;;;17.20;83.90;;;;;;5096299;28;20028;-79
2022/10/17 10:11:53;;;;;;;7.78;2.33;;;17.20;83.90;;;;;;5113545;28;20107;-79
2022/10/17 10:14:32;;;;;;;8.35;2.20;;;17.10;83.80;;;;;;5113551;28;20047;-79
2022/10/17 10:16:58;;;;;;;12.73;2.40;;;17.10;83.80;;;;;;5113580;28;20490;-79
2022/10/17 10:19:34;;;;;;;12.65;2.13;;;17.10;83.80;;;;;;5096184;28;20019;-79
2022/10/17 10:22:03;;;;;;;7.20;2.10;;;17.10;83.90;;;;;;5113256;28;20132;-79
2022/10/17 10:24:28;;;;;;;7.22;2.20;;;17.20;83.90;;;;;;5096654;28;20057;-79
2022/10/17 10:26:55;;;;;;;6.95;1.80;;;17.20;83.90;;;;;;5096494;28;20019;-79
2022/10/17 10:29:35;;;;;;;8.30;2.20;;;17.10;83.80;;;;;;5096143;28;20027;-79
2022/10/17 10:32:19;;;;;;;9.23;2.25;;;17.10;83.90;;;;;;5112811;28;20488;-79
2022/10/17 10:34:53;;;;;;;5.35;2.50;;;17.10;83.90;;;;;;5114314;28;20028;-79
2022/10/17 10:37:24;;;;;;;8.35;1.92;;;17.10;83.90;;;;;;5112966;28;20038;-79
2022/10/17 10:40:03;;;;;;;11.10;2.20;;;17.20;83.90;;;;;;5113002;28;20533;-80
2022/10/17 10:42:29;;;;;;;10.77;2.72;;;17.10;83.90;;;;;;5096680;28;20031;-79
2022/10/17 10:44:57;;;;;;;6.82;2.33;;;17.10;83.90;;;;;;5114125;28;20027;-79
2022/10/17 10:47:25;;;;;;;4.97;1.80;;;17.10;83.90;;;;;;5079745;28;20027;-79
2022/10/17 10:50:11;;;;;;;6.82;2.10;;;17.10;83.90;;;;;;5075774;28;20028;-79
2022/10/17 10:52:45;;;;;;;6.00;2.03;;;17.10;83.90;;;;;;5093344;28;20024;-79
2022/10/17 10:55:25;;;;;;;6.72;1.70;;;17.10;83.90;;;;;;5075924;28;20028;-79
2022/10/17 10:57:53;;;;;;;8.55;2.20;;;17.10;83.90;;;;;;5075857;28;20567;-79
2022/10/17 11:00:21;;;;;;;7.72;2.05;;;17.10;83.90;;;;;;5092253;28;20020;-79
2022/10/17 11:03:05;;;;;;;6.35;1.98;;;17.10;84.50;;;;;;5075407;28;20024;-79
2022/10/17 11:05:43;;;;;;;6.90;1.85;;;17.10;84.00;;;;;;5093414;28;20470;-79
2022/10/17 11:08:36;;;;;;;6.13;2.05;;;17.10;84.00;;;;;;5087856;28;20123;-79
2022/10/17 11:11:12;;;;;;;;;;;17.10;83.90;;;;;;5112943;28;20019;-79
2022/10/17 11:13:44;;;;;;;5.25;2.08;;;17.10;83.90;;;;;;5113456;28;19904;-79
2022/10/17 11:16:39;;;;;;;5.25;2.20;;;17.10;83.90;;;;;;5112395;28;20043;-79
2022/10/17 11:19:42;;;;;;;5.88;1.88;;;17.10;83.90;;;;;;5096319;28;20027;-79
2022/10/17 11:22:20;;;;;;;10.18;2.28;;;17.10;83.90;;;;;;5113364;28;20444;-79
2022/10/17 11:24:55;;;;;;;4.43;1.83;;;17.10;83.90;;;;;;5096307;28;20030;-79
2022/10/17 11:27:22;;;;;;;7.97;2.63;;;17.10;83.90;;;;;;5112097;28;20096;-79
2022/10/17 11:29:47;;;;;;;10.68;2.13;;;17.10;84.00;;;;;;5095219;28;20429;-79
2022/10/17 11:32:19;;;;;;;5.20;2.25;;;17.10;83.90;;;;;;5113102;28;20023;-79
2022/10/17 11:34:47;;;;;;;3.65;1.60;;;17.10;83.90;;;;;;5113268;28;20493;-79
2022/10/17 11:37:26;;;;;;;6.18;1.88;;;17.10;84.00;;;;;;5095175;28;20020;-79
2022/10/17 11:39:56;;;;;;;6.20;1.40;;;17.10;84.00;;;;;;5095572;28;20022;-79
2022/10/17 11:42:30;;;;;;;8.13;2.22;;;17.10;84.00;;;;;;5095313;28;20020;-79
2022/10/17 11:45:03;;;;;;;5.00;1.85;;;17.10;84.00;;;;;;5111621;28;20100;-79
2022/10/17 11:47:46;;;;;;;4.88;1.63;;;17.10;84.00;;;;;;5079817;28;20035;-79
2022/10/17 11:50:18;;;;;;;5.45;1.92;;;17.10;84.00;;;;;;5075182;28;20020;-79
2022/10/17 11:52:45;;;;;;;6.03;1.95;;;17.10;84.00;;;;;;5092227;28;20486;-79
2022/10/17 11:55:22;;;;;;;4.55;2.10;;;17.10;84.00;;;;;;5091507;28;20012;-79
2022/10/17 11:58:01;;;;;;;6.38;1.98;;;17.10;84.00;;;;;;5074457;28;20020;-79
2022/10/17 12:00:44;;;;;;;8.00;2.08;;;17.10;84.00;;;;;;5092375;28;20028;-79
2022/10/17 12:03:44;;;;;;;6.57;2.00;;;17.10;84.00;;;;;;5091188;28;20016;-78
2022/10/17 12:06:13;;;;;;;5.90;2.00;;;17.10;84.00;;;;;;5091299;28;20028;-78
2022/10/17 12:09:11;;;;;;;6.55;1.67;;;17.10;84.10;;;;;;5108244;28;20058;-79
2022/10/17 12:11:39;;;;;;;7.85;2.03;;;17.10;84.10;;;;;;5099124;28;20115;-79
2022/10/17 12:14:33;;;;;;;6.15;1.77;;;17.10;84.10;;;;;;5112617;28;20482;-79
2022/10/17 12:17:00;;;;;;;5.15;1.52;;;17.10;84.00;;;;;;5112853;28;20024;-79
2022/10/17 12:19:27;;;;;;;4.53;1.35;;;17.10;84.10;;;;;;5094613;28;20032;-78
2022/10/17 12:22:11;;;;;;;9.68;2.30;;;17.10;84.10;;;;;;5094761;28;20025;-79
2022/10/17 12:24:42;;;;;;;4.72;1.65;;;17.20;84.10;;;;;;5111348;28;20059;-79
2022/10/17 12:27:42;;;;;;;6.18;1.65;;;17.20;85.10;;;;;;5094642;28;20483;-79
2022/10/17 12:30:11;;;;;;;5.93;1.63;;;17.20;84.10;;;;;;5111365;28;20019;-79
2022/10/17 12:32:37;;;;;;;7.53;1.92;;;17.20;84.20;;;;;;5112286;28;20485;-79
2022/10/17 12:35:02;;;;;;;4.25;1.92;;;17.20;84.10;;;;;;5094542;28;20167;-79
2022/10/17 12:37:47;;;;;;;4.50;2.13;;;17.20;84.10;;;;;;5111575;28;20484;-79
2022/10/17 12:40:34;;;;;;;5.22;1.67;;;17.20;84.10;;;;;;5112505;28;20034;-79
2022/10/17 12:43:18;;;;;;;7.65;1.92;;;17.20;84.10;;;;;;5112305;28;20103;-79
2022/10/17 12:45:50;;;;;;;6.00;1.73;;;17.20;84.20;;;;;;5095704;28;20024;-79
2022/10/17 12:48:40;;;;;;;5.68;1.80;;;17.20;84.20;;;;;;5092106;28;20089;-78
2022/10/17 12:51:13;;;;;;;5.25;1.60;;;17.20;84.20;;;;;;5092200;28;20051;-79
2022/10/17 12:53:48;;;;;;;3.17;1.67;;;17.20;84.10;;;;;;5074787;28;20054;-79
2022/10/17 12:56:19;;;;;;;5.10;1.90;;;17.20;84.10;;;;;;5091974;28;20028;-79
2022/10/17 12:58:45;;;;;;;5.13;1.77;;;17.20;84.10;;;;;;5090607;28;20436;-79
2022/10/17 13:01:17;;;;;;;5.70;1.52;;;17.20;84.10;;;;;;5074134;28;20428;-79